Time;durP1;ratioP1;P1;durP2;ratioP2;P2;SDS_P1;SDS_P2;PMS_P1;PMS_P2;Temp;Humidity;BMP_temperature;BMP_pressure;BME280_temperature;BME280_humidity;BME280_pressure;Samples;Min_cycle;Max_cycle;Signal;HPM_P1;HPM_P2
2021/04/01 00:01:10;;;;;;;24.50;16.70;;;;;;;15.86;56.50;101017.38;4686499;30;20054;-76
2021/04/01 00:04:14;;;;;;;26.27;17.90;;;;;;;15.83;56.76;101018.53;4686323;30;20054;-77
2021/04/01 00:07:20;;;;;;;22.92;16.65;;;;;;;15.87;56.43;101011.81;4703595;30;20398;-75
2021/04/01 00:10:31;;;;;;;23.13;16.20;;;;;;;15.77;57.14;101008.31;4696819;30;20049;-77
2021/04/01 00:13:39;;;;;;;21.70;15.63;;;;;;;15.80;56.83;101015.28;4675695;30;20398;-78
2021/04/01 00:16:44;;;;;;;26.70;16.27;;;;;;;15.79;57.07;101019.84;4697130;30;20053;-78
2021/04/01 00:19:48;;;;;;;26.85;16.85;;;;;;;15.79;57.36;101011.72;4702843;30;20053;-77
2021/04/01 00:22:53;;;;;;;20.92;15.10;;;;;;;15.81;57.29;101009.72;4703473;30;20406;-78
2021/04/01 00:25:57;;;;;;;22.30;16.15;;;;;;;15.79;56.91;101010.88;4703124;30;20050;-77
2021/04/01 00:29:02;;;;;;;21.73;15.50;;;;;;;15.79;57.29;101006.31;4685753;30;20057;-77
2021/04/01 00:32:07;;;;;;;21.48;16.08;;;;;;;15.75;57.22;100999.47;4697862;30;20386;-77
2021/04/01 00:35:11;;;;;;;19.50;15.73;;;;;;;15.77;57.24;101007.47;4703042;30;20054;-78
2021/04/01 00:38:15;;;;;;;23.30;15.70;;;;;;;15.67;57.74;100994.00;4703107;30;20053;-78
2021/04/01 00:41:20;;;;;;;20.60;15.15;;;;;;;15.59;58.26;100992.03;4703014;30;20050;-77
2021/04/01 00:44:24;;;;;;;19.38;15.45;;;;;;;15.62;58.04;100982.75;4702544;30;20053;-77
2021/04/01 00:47:43;;;;;;;21.73;15.57;;;;;;;15.49;57.51;100984.97;4695863;30;20418;-78
2021/04/01 00:50:47;;;;;;;22.90;15.65;;;;;;;15.35;58.17;100983.59;4704742;30;20471;-78
2021/04/01 00:53:52;;;;;;;22.30;16.13;;;;;;;15.25;57.67;100979.22;4707420;30;20053;-79
2021/04/01 00:56:57;;;;;;;25.55;15.77;;;;;;;15.22;57.61;100974.97;4701656;30;20057;-77
2021/04/01 01:00:03;;;;;;;20.20;14.95;;;;;;;15.20;57.99;100979.69;4694580;30;20058;-76
2021/04/01 01:03:08;;;;;;;24.83;15.65;;;;;;;15.24;57.33;100972.97;4685591;30;20050;-79
2021/04/01 01:06:12;;;;;;;20.55;16.13;;;;;;;15.27;57.80;100969.97;4699340;30;20061;-76
2021/04/01 01:09:17;;;;;;;23.92;16.77;;;;;;;15.28;57.54;100973.53;4702549;30;20049;-77
2021/04/01 01:12:21;;;;;;;24.42;15.27;;;;;;;15.29;57.64;100965.25;4702451;30;20061;-77
2021/04/01 01:15:26;;;;;;;19.13;14.70;;;;;;;15.20;57.84;100973.41;4702401;30;20041;-77
2021/04/01 01:18:30;;;;;;;22.85;15.65;;;;;;;15.19;57.72;100974.41;4702391;30;20050;-77
2021/04/01 01:21:35;;;;;;;22.58;14.95;;;;;;;15.26;57.38;100980.91;4685122;30;20054;-77
2021/04/01 01:24:39;;;;;;;25.40;16.75;;;;;;;15.16;57.82;100969.31;4685072;30;20046;-77
2021/04/01 01:27:44;;;;;;;20.63;16.10;;;;;;;15.04;58.17;100970.47;4684926;30;20058;-78
2021/04/01 01:30:49;;;;;;;18.73;14.65;;;;;;;14.96;58.45;100965.84;4684936;30;20046;-78
2021/04/01 01:33:56;;;;;;;23.77;14.98;;;;;;;15.00;58.08;100961.81;4697016;30;20046;-77
2021/04/01 01:37:02;;;;;;;20.20;15.13;;;;;;;15.02;57.83;100967.06;4684817;30;20050;-77
2021/04/01 01:40:07;;;;;;;22.48;14.57;;;;;;;15.02;57.63;100967.06;4694495;30;20398;-78
2021/04/01 01:43:14;;;;;;;22.83;15.40;;;;;;;14.98;57.62;100962.00;4701880;30;20054;-79
2021/04/01 01:46:18;;;;;;;20.48;14.23;;;;;;;14.90;58.23;100964.56;4701880;30;20054;-79
2021/04/01 01:49:24;;;;;;;19.48;13.85;;;;;;;14.78;57.85;100965.75;4711349;30;20050;-77
2021/04/01 01:52:28;;;;;;;22.75;14.48;;;;;;;14.78;58.23;100956.78;4701609;30;20049;-77
2021/04/01 01:55:34;;;;;;;18.17;13.77;;;;;;;14.86;58.09;100957.72;4701406;30;20050;-77
2021/04/01 01:58:39;;;;;;;21.58;14.43;;;;;;;14.79;57.79;100962.03;4701958;30;20382;-78
2021/04/01 02:01:43;;;;;;;20.48;13.55;;;;;;;14.84;57.65;100959.75;4701159;30;20502;-78
2021/04/01 02:04:47;;;;;;;22.10;14.05;;;;;;;14.82;58.15;100961.75;4690206;30;20057;-78
2021/04/01 02:07:53;;;;;;;24.63;13.93;;;;;;;14.77;58.29;100952.38;4701360;30;20053;-77
2021/04/01 02:10:57;;;;;;;18.63;14.30;;;;;;;14.71;58.28;100945.72;4700493;30;20057;-78
2021/04/01 02:14:02;;;;;;;20.45;14.52;;;;;;;14.69;58.69;100949.56;4701016;30;20054;-77
2021/04/01 02:17:16;;;;;;;17.63;13.13;;;;;;;14.62;58.05;100946.56;4684100;30;20054;-78
2021/04/01 02:20:21;;;;;;;16.17;13.27;;;;;;;14.53;58.64;100952.88;4694707;30;20494;-78
2021/04/01 02:23:35;;;;;;;17.58;12.63;;;;;;;14.46;59.20;100951.75;4700881;30;20057;-76
2021/04/01 02:26:39;;;;;;;17.50;13.43;;;;;;;14.37;59.21;100949.06;4688623;30;20406;-79
2021/04/01 02:29:44;;;;;;;18.02;14.30;;;;;;;14.26;60.01;100941.94;4700469;30;20045;-76
2021/04/01 02:32:49;;;;;;;18.13;13.07;;;;;;;14.18;59.64;100936.38;4700838;30;20045;-76
2021/04/01 02:35:54;;;;;;;18.08;12.80;;;;;;;14.13;59.87;100941.34;4700519;30;20395;-78
2021/04/01 02:38:58;;;;;;;20.23;13.10;;;;;;;14.14;60.05;100938.53;4700226;30;20474;-77
2021/04/01 02:42:03;;;;;;;19.45;13.05;;;;;;;14.06;60.20;100933.00;4701030;30;20046;-77
2021/04/01 02:45:10;;;;;;;21.10;13.60;;;;;;;14.05;60.11;100935.81;4701007;30;20474;-77
2021/04/01 02:48:15;;;;;;;18.35;11.88;;;;;;;14.04;59.68;100936.81;4700919;30;20061;-79
2021/04/01 02:51:19;;;;;;;22.02;13.20;;;;;;;14.01;59.97;100940.66;4700987;30;20383;-78
2021/04/01 02:54:24;;;;;;;18.48;12.45;;;;;;;13.95;60.09;100930.41;4699890;30;20049;-77
2021/04/01 02:57:28;;;;;;;19.70;13.25;;;;;;;13.97;60.29;100935.69;4709924;30;20049;-77
2021/04/01 03:00:35;;;;;;;20.23;12.30;;;;;;;13.92;60.07;100925.34;4700751;30;20045;-77
2021/04/01 03:03:43;;;;;;;16.67;12.85;;;;;;;13.86;60.22;100925.03;4700785;30;20057;-78
2021/04/01 03:06:49;;;;;;;16.55;11.70;;;;;;;13.79;60.15;100924.75;4701018;30;20486;-77
2021/04/01 03:09:53;;;;;;;17.40;12.40;;;;;;;13.70;60.17;100934.53;4700359;30;20062;-77
2021/04/01 03:12:59;;;;;;;15.27;11.50;;;;;;;13.76;60.57;100938.50;4700278;30;20050;-77
2021/04/01 03:16:04;;;;;;;18.48;11.35;;;;;;;13.72;60.09;100939.81;4700382;30;20061;-77
2021/04/01 03:19:09;;;;;;;18.10;12.13;;;;;;;13.66;60.56;100933.13;4699820;30;20054;-76
2021/04/01 03:22:13;;;;;;;13.60;11.93;;;;;;;13.56;60.68;100926.84;4699800;30;20491;-77
2021/04/01 03:25:18;;;;;;;14.00;11.15;;;;;;;13.54;60.82;100928.84;4683319;30;20054;-77
2021/04/01 03:28:23;;;;;;;18.60;12.18;;;;;;;13.48;60.82;100924.00;4683331;30;20054;-78
2021/04/01 03:31:27;;;;;;;15.10;11.15;;;;;;;13.54;60.94;100928.84;4683292;30;20054;-78
2021/04/01 03:34:32;;;;;;;16.95;11.07;;;;;;;13.47;60.74;100916.91;4682291;30;20049;-77
2021/04/01 03:37:36;;;;;;;15.32;11.13;;;;;;;13.43;60.68;100920.03;4683249;30;20058;-77
2021/04/01 03:40:42;;;;;;;18.20;11.05;;;;;;;13.39;61.09;100913.19;4683420;30;20050;-77
2021/04/01 03:43:46;;;;;;;18.13;11.35;;;;;;;13.36;61.09;100914.31;4699555;30;20053;-77
2021/04/01 03:46:50;;;;;;;17.88;11.05;;;;;;;13.30;60.92;100914.03;4700414;30;20054;-77
2021/04/01 03:49:55;;;;;;;16.67;10.65;;;;;;;13.33;60.73;100914.59;4700378;30;20065;-77
2021/04/01 03:52:59;;;;;;;17.15;10.73;;;;;;;13.26;61.16;100905.34;4699875;30;20049;-77
2021/04/01 03:56:04;;;;;;;14.25;10.48;;;;;;;13.29;60.92;100909.63;4700287;30;20053;-77
2021/04/01 03:59:12;;;;;;;13.75;10.25;;;;;;;13.27;60.92;100908.91;4709545;30;20045;-77
2021/04/01 04:15:31;;;;;;;14.68;10.70;;;;;;;13.17;60.96;100899.94;4681997;30;20054;-78
2021/04/01 04:18:36;;;;;;;17.25;10.63;;;;;;;13.11;60.87;100895.94;4682235;30;20058;-78
2021/04/01 04:21:40;;;;;;;14.10;10.48;;;;;;;13.14;60.76;100898.38;4691529;30;20391;-77
2021/04/01 04:24:45;;;;;;;17.48;10.95;;;;;;;13.17;60.72;100905.34;4690835;30;20049;-77
2021/04/01 04:31:01;;;;;;;13.75;10.27;;;;;;;13.02;61.44;100891.34;4701023;30;20053;-78
2021/04/01 04:34:05;;;;;;;16.13;9.73;;;;;;;13.04;61.51;100900.16;4711478;30;20478;-77
2021/04/01 04:37:10;;;;;;;15.70;10.52;;;;;;;13.03;61.63;100893.91;4701782;30;20060;-77
2021/04/01 04:40:15;;;;;;;14.15;9.77;;;;;;;13.08;60.90;100901.63;4702669;30;20053;-76
2021/04/01 04:43:20;;;;;;;13.52;8.57;;;;;;;13.04;61.08;100892.06;4705532;30;20060;-78
2021/04/01 04:46:24;;;;;;;19.73;10.18;;;;;;;13.08;61.00;100898.94;4693676;30;20065;-78
2021/04/01 04:49:29;;;;;;;16.20;9.48;;;;;;;13.07;61.16;100886.44;4702380;30;20050;-76
2021/04/01 04:52:35;;;;;;;23.33;10.15;;;;;;;13.08;60.55;100885.47;4702289;30;20056;-77
2021/04/01 04:55:40;;;;;;;16.40;9.85;;;;;;;13.12;61.00;100886.88;4701615;30;20049;-77
2021/04/01 05:05:12;;;;;;;14.00;9.75;;;;;;;13.27;60.62;100892.72;4701492;30;20053;-77
2021/04/01 05:08:17;;;;;;;23.90;9.98;;;;;;;13.28;60.36;100880.97;4698675;30;20061;-77
2021/04/01 05:11:21;;;;;;;18.40;10.00;;;;;;;13.30;59.66;100881.69;4701738;30;20061;-77
2021/04/01 05:14:26;;;;;;;64.88;45.72;;;;;;;13.43;59.98;100888.50;4701443;30;20053;-77
2021/04/01 05:17:30;;;;;;;23.10;15.15;;;;;;;13.57;59.49;100889.94;4701634;30;20049;-78
2021/04/01 05:20:35;;;;;;;12.75;9.40;;;;;;;13.69;58.56;100883.41;4700729;30;20049;-77
2021/04/01 05:23:50;;;;;;;13.77;8.85;;;;;;;13.83;58.07;100891.06;4695274;30;20119;-79
2021/04/01 05:30:01;;;;;;;12.00;7.82;;;;;;;14.13;56.84;100877.41;4696317;30;20172;-77
2021/04/01 05:33:06;;;;;;;14.25;8.20;;;;;;;14.32;56.35;100881.94;4700803;30;20064;-77
2021/04/01 05:36:14;;;;;;;20.92;7.50;;;;;;;14.53;55.31;100879.06;4701615;30;20080;-79
2021/04/01 05:39:26;;;;;;;16.70;7.28;;;;;;;14.70;55.04;100881.00;4701554;30;20068;-77
2021/04/01 05:42:35;;;;;;;18.52;7.35;;;;;;;14.87;54.44;100894.56;4701026;30;20061;-78
2021/04/01 05:45:50;;;;;;;17.50;6.97;;;;;;;15.08;53.80;100894.34;4701548;30;20061;-76
2021/04/01 06:02:20;;;;;;;18.38;8.52;;;;;;;16.20;52.60;100910.03;4700463;30;20145;-75
2021/04/01 06:05:28;;;;;;;16.90;8.32;;;;;;;16.35;53.01;100908.47;4683835;30;20148;-76
2021/04/01 06:08:46;;;;;;;20.38;8.13;;;;;;;16.37;53.61;100913.75;4683644;30;20049;-75
2021/04/01 06:11:53;;;;;;;13.00;7.00;;;;;;;16.61;53.35;100919.38;4681058;30;20166;-75
2021/04/01 06:15:07;;;;;;;12.52;6.57;;;;;;;16.69;51.71;100909.41;4689616;30;20072;-75
2021/04/01 06:18:13;;;;;;;13.80;6.43;;;;;;;16.79;50.13;100910.16;4680859;30;20077;-75
2021/04/01 06:21:22;;;;;;;15.13;6.70;;;;;;;17.12;50.28;100907.59;4680675;30;20415;-76
2021/04/01 06:24:28;;;;;;;13.18;5.88;;;;;;;17.39;48.81;100908.22;4681256;30;20061;-75
2021/04/01 06:27:38;;;;;;;14.13;6.30;;;;;;;17.45;48.71;100907.53;4681241;30;20071;-75
2021/04/01 06:30:57;;;;;;;13.68;6.43;;;;;;;17.57;47.78;100915.44;4682537;30;20061;-75
2021/04/01 06:34:04;;;;;;;15.10;5.82;;;;;;;17.66;47.23;100909.00;4683212;30;20065;-77
2021/04/01 06:40:57;;;;;;;20.33;6.82;;;;;;;17.85;47.53;100903.28;4683140;30;20075;-75
2021/04/01 06:44:10;;;;;;;15.27;6.13;;;;;;;18.26;46.68;100907.69;4683111;30;20061;-76
2021/04/01 06:47:20;;;;;;;18.55;6.65;;;;;;;18.36;46.60;100897.50;4683153;30;20069;-76
2021/04/01 06:50:35;;;;;;;14.60;5.30;;;;;;;18.43;46.75;100889.50;4682955;30;20167;-76
2021/04/01 06:53:56;;;;;;;8.63;5.07;;;;;;;18.52;46.21;100883.91;4682564;30;20061;-76
2021/04/01 07:03:54;;;;;;;8.98;4.85;;;;;;;19.12;45.41;100883.38;4683140;30;20053;-76
2021/04/01 07:07:07;;;;;;;10.27;5.03;;;;;;;19.52;44.74;100880.47;4682702;30;20061;-82
2021/04/01 07:13:48;;;;;;;12.45;5.10;;;;;;;21.35;41.43;100877.19;4750200;30;20071;-75
2021/04/01 07:17:08;;;;;;;17.13;5.80;;;;;;;22.07;40.10;100867.06;4750209;30;20068;-76
2021/04/01 07:24:02;;;;;;;13.52;5.40;;;;;;;22.93;38.17;100869.44;4750368;30;20182;-76
2021/04/01 07:45:05;;;;;;;9.07;3.90;;;;;;;41.36;15.03;100854.22;4750596;30;20436;-76
2021/04/01 07:48:12;;;;;;;11.07;3.70;;;;;;;42.16;15.02;100858.50;4750138;30;20059;-76
2021/04/01 07:54:57;;;;;;;13.95;3.83;;;;;;;42.59;14.52;100850.00;4682724;30;20395;-76
2021/04/01 08:04:42;;;;;;;10.30;4.50;;;;;;;43.74;14.72;100852.47;4682520;30;20053;-76
2021/04/01 08:07:55;;;;;;;13.38;3.75;;;;;;;44.60;13.81;100864.72;4685011;30;20057;-76
2021/04/01 08:11:03;;;;;;;11.63;4.28;;;;;;;43.38;14.52;100855.88;4685801;30;20426;-75
2021/04/01 08:14:20;;;;;;;12.98;7.07;;;;;;;44.59;13.87;100856.59;4694420;30;20525;-76
2021/04/01 08:17:28;;;;;;;12.80;5.57;;;;;;;45.87;12.46;100861.72;4684849;30;20505;-76
2021/04/01 08:20:37;;;;;;;14.82;4.80;;;;;;;47.59;12.10;100866.53;4694685;30;20053;-76
2021/04/01 08:24:01;;;;;;;10.43;4.80;;;;;;;46.80;12.08;100869.75;4685551;30;20057;-76
2021/04/01 08:37:16;;;;;;;17.63;5.70;;;;;;;44.37;12.99;100854.94;4685505;30;20064;-76
2021/04/01 08:40:20;;;;;;;15.23;6.68;;;;;;;45.42;13.02;100859.88;4685568;30;20084;-76
2021/04/01 08:43:35;;;;;;;15.00;6.00;;;;;;;46.04;12.66;100856.63;4685432;30;20164;-76
2021/04/01 08:46:55;;;;;;;15.30;6.63;;;;;;;45.74;12.83;100860.94;4684645;30;20057;-76
2021/04/01 08:50:05;;;;;;;12.88;7.70;;;;;;;44.86;12.47;100858.78;4685199;30;20076;-76
2021/04/01 08:53:28;;;;;;;12.38;7.18;;;;;;;46.24;12.99;100858.44;4685283;30;20422;-76
2021/04/01 08:56:37;;;;;;;14.93;8.50;;;;;;;45.41;12.65;100854.59;4685253;30;20073;-76
2021/04/01 08:59:55;;;;;;;17.70;8.90;;;;;;;45.40;13.03;100841.56;4685227;30;20061;-76
2021/04/01 09:03:01;;;;;;;17.77;10.35;;;;;;;44.44;13.90;100841.06;4685201;30;20069;-76
2021/04/01 09:06:13;;;;;;;19.63;12.57;;;;;;;45.25;12.53;100839.44;4685270;30;20057;-76
2021/04/01 09:09:30;;;;;;;26.70;16.17;;;;;;;41.89;14.74;100836.25;4685145;30;20054;-76
2021/04/01 09:12:49;;;;;;;23.77;15.07;;;;;;;37.41;17.85;100836.75;4684964;30;20368;-75
2021/04/01 09:16:08;;;;;;;28.10;16.05;;;;;;;33.46;22.15;100840.75;4694063;30;20058;-75
2021/04/01 09:19:14;;;;;;;25.00;16.08;;;;;;;33.27;22.37;100832.06;4684819;30;20053;-76
2021/04/01 09:22:21;;;;;;;20.85;14.95;;;;;;;32.23;23.90;100828.31;4693965;30;20054;-76
2021/04/01 09:25:40;;;;;;;30.45;16.02;;;;;;;30.77;25.26;100823.78;4684941;30;20058;-75
2021/04/01 09:28:44;;;;;;;36.90;16.85;;;;;;;30.25;26.16;100818.53;4684594;30;20138;-75
2021/04/01 09:31:58;;;;;;;32.17;19.00;;;;;;;29.52;26.61;100820.50;4684658;30;20046;-75
2021/04/01 09:35:05;;;;;;;29.67;17.58;;;;;;;29.28;27.69;100818.94;4684890;30;20065;-82
2021/04/01 09:38:11;;;;;;;33.05;18.70;;;;;;;28.71;28.76;100810.50;4684530;30;20062;-75
2021/04/01 09:41:27;;;;;;;37.83;20.42;;;;;;;28.05;29.86;100808.03;4684627;30;20057;-75
2021/04/01 09:44:33;;;;;;;35.30;18.27;;;;;;;27.80;29.66;100814.81;4684457;30;20054;-75
2021/04/01 09:47:46;;;;;;;38.85;21.13;;;;;;;27.52;30.56;100801.63;4684361;30;20062;-75
2021/04/01 09:50:55;;;;;;;;;;;;;;;27.07;30.95;100807.50;4684872;30;20050;-76
2021/04/01 09:54:00;;;;;;;46.22;25.17;;;;;;;26.84;31.74;100803.75;4703398;30;19931;-75
2021/04/01 09:57:06;;;;;;;43.38;22.65;;;;;;;27.04;31.79;100804.38;4684130;30;20053;-83
2021/04/01 10:00:22;;;;;;;37.90;22.50;;;;;;;27.35;31.41;100795.91;4684074;30;20058;-75
2021/04/01 10:04:00;;;;;;;37.42;23.33;;;;;;;27.28;31.81;100794.31;4693279;30;20046;-75
2021/04/01 10:07:15;;;;;;;48.90;28.25;;;;;;;27.09;31.98;100802.59;4683908;30;20053;-76
2021/04/01 10:10:34;;;;;;;50.55;32.03;;;;;;;26.61;32.65;100792.56;4684023;30;20049;-75
2021/04/01 10:13:39;;;;;;;66.32;37.50;;;;;;;26.28;33.57;100784.63;4683698;30;20057;-75
2021/04/01 10:16:55;;;;;;;65.80;37.65;;;;;;;26.23;33.88;100778.97;4683875;30;20050;-76
2021/04/01 10:20:02;;;;;;;63.97;38.15;;;;;;;26.28;34.77;100781.88;4683923;30;20407;-75
2021/04/01 10:23:08;;;;;;;60.67;37.63;;;;;;;26.57;33.97;100777.53;4683853;30;20046;-75
2021/04/01 10:26:14;;;;;;;63.08;42.30;;;;;;;26.37;33.86;100766.75;4692993;30;20054;-75
2021/04/01 10:29:26;;;;;;;69.57;42.92;;;;;;;25.99;34.03;100764.13;4683438;30;20049;-75
2021/04/01 10:32:39;;;;;;;62.78;42.15;;;;;;;26.08;34.69;100771.03;4683789;30;20050;-75
2021/04/01 10:35:48;;;;;;;69.60;43.23;;;;;;;26.08;34.82;100753.66;4683639;30;20046;-75
2021/04/01 10:39:09;;;;;;;71.30;45.35;;;;;;;26.02;34.54;100751.84;4683543;30;20317;-75
2021/04/01 10:42:23;;;;;;;71.07;45.20;;;;;;;26.00;35.15;100753.97;4683479;30;20054;-75
2021/04/01 10:45:33;;;;;;;66.00;44.72;;;;;;;25.89;35.55;100743.69;4683457;30;20050;-75
2021/04/01 10:48:46;;;;;;;79.50;48.97;;;;;;;25.81;35.70;100742.06;4683478;30;20054;-75
2021/04/01 10:51:53;;;;;;;74.93;48.22;;;;;;;25.73;36.27;100739.56;4692457;30;20049;-80
2021/04/01 10:54:58;;;;;;;69.50;45.17;;;;;;;25.82;36.34;100727.25;4683496;30;20054;-75
2021/04/01 10:58:10;;;;;;;67.18;45.80;;;;;;;25.92;36.21;100724.00;4683286;30;20411;-76
2021/04/01 11:01:23;;;;;;;70.30;46.70;;;;;;;26.13;35.92;100721.69;4683630;30;20058;-76
2021/04/01 11:04:30;;;;;;;68.18;43.30;;;;;;;26.30;35.27;100717.28;4683291;30;20054;-75
2021/04/01 11:07:47;;;;;;;75.72;48.55;;;;;;;26.34;35.07;100718.50;4683304;30;20054;-77
2021/04/01 11:11:00;;;;;;;73.07;47.72;;;;;;;26.16;33.90;100704.72;4683202;30;20406;-75
2021/04/01 11:14:05;;;;;;;;;;;;;;;26.13;34.12;100702.44;4682956;30;20062;-75
2021/04/01 11:17:13;;;;;;;68.60;44.30;;;;;;;26.34;33.62;100698.41;4682978;30;19923;-76
2021/04/01 11:20:18;;;;;;;57.47;37.20;;;;;;;26.05;32.23;100690.81;4683158;30;20046;-76
2021/04/01 11:23:25;;;;;;;64.47;39.75;;;;;;;25.71;32.85;100687.56;4683296;30;20467;-75
2021/04/01 11:26:30;;;;;;;58.97;36.75;;;;;;;25.81;32.64;100684.28;4683274;30;20463;-75
2021/04/01 11:29:34;;;;;;;56.30;36.78;;;;;;;25.93;32.50;100671.47;4683056;30;20054;-76
2021/04/01 11:32:51;;;;;;;61.35;38.08;;;;;;;25.63;32.97;100681.50;4692416;30;20054;-76
2021/04/01 11:36:16;;;;;;;63.50;42.38;;;;;;;25.48;34.89;100681.81;4682237;30;20054;-76
2021/04/01 11:39:36;;;;;;;71.25;45.85;;;;;;;25.40;35.52;100670.25;4682988;30;20495;-76
2021/04/01 11:42:51;;;;;;;67.90;42.10;;;;;;;25.54;34.78;100674.59;4686536;30;20058;-75
2021/04/01 11:45:57;;;;;;;56.47;36.80;;;;;;;25.51;34.25;100677.78;4695156;30;20050;-76
2021/04/01 11:49:03;;;;;;;55.97;36.08;;;;;;;25.52;33.83;100660.25;4686138;30;20050;-77
2021/04/01 11:52:11;;;;;;;62.17;38.83;;;;;;;25.77;34.01;100661.06;4686194;30;20046;-75
2021/04/01 11:55:16;;;;;;;70.63;43.00;;;;;;;25.81;35.04;100654.03;4686075;30;20081;-75
2021/04/01 11:58:22;;;;;;;57.13;37.28;;;;;;;25.53;33.14;100656.44;4685025;30;20058;-76
2021/04/01 12:01:32;;;;;;;61.22;39.90;;;;;;;25.69;34.65;100642.94;4686284;30;20424;-75
2021/04/01 12:04:39;;;;;;;67.10;42.83;;;;;;;25.68;35.51;100637.66;4686184;30;20054;-75
2021/04/01 12:07:43;;;;;;;69.72;42.53;;;;;;;25.82;35.45;100642.81;4686343;30;20053;-75
2021/04/01 12:10:57;;;;;;;63.50;40.70;;;;;;;25.84;35.00;100634.34;4686137;30;20058;-76
2021/04/01 12:14:07;;;;;;;60.53;37.65;;;;;;;25.85;34.06;100636.00;4685629;30;20058;-76
2021/04/01 12:17:11;;;;;;;59.13;38.17;;;;;;;25.81;34.05;100635.63;4686148;30;20065;-76
2021/04/01 12:20:16;;;;;;;63.08;37.95;;;;;;;25.51;34.64;100620.06;4685932;30;20054;-76
2021/04/01 12:23:23;;;;;;;59.72;37.03;;;;;;;25.60;34.61;100621.47;4685922;30;20062;-76
2021/04/01 12:26:30;;;;;;;56.17;35.47;;;;;;;25.60;34.34;100616.78;4685881;30;20058;-76
2021/04/01 12:29:51;;;;;;;56.15;34.60;;;;;;;25.50;33.75;100618.38;4685462;30;20074;-75
2021/04/01 12:33:13;;;;;;;61.33;35.92;;;;;;;25.42;34.59;100604.88;4685682;30;20054;-76
2021/04/01 12:36:30;;;;;;;53.40;35.00;;;;;;;25.28;34.56;100592.34;4694544;30;20046;-76
2021/04/01 12:39:38;;;;;;;53.05;33.28;;;;;;;25.40;34.70;100590.53;4685388;30;20054;-76
2021/04/01 12:42:45;;;;;;;48.85;31.13;;;;;;;25.43;34.32;100587.34;4685496;30;20058;-82
2021/04/01 12:45:54;;;;;;;40.15;24.60;;;;;;;25.46;32.46;100592.41;4685379;30;20352;-76
2021/04/01 12:49:00;;;;;;;45.17;26.10;;;;;;;25.56;32.45;100587.22;4685591;30;20054;-76
2021/04/01 12:52:07;;;;;;;40.83;25.58;;;;;;;25.52;32.46;100578.59;4685202;30;20050;-76
2021/04/01 12:55:23;;;;;;;33.85;22.38;;;;;;;25.51;31.87;100565.91;4685287;30;20049;-82
2021/04/01 12:58:36;;;;;;;34.17;22.98;;;;;;;25.62;32.39;100569.84;4685196;30;20399;-76
2021/04/01 13:01:47;;;;;;;37.90;20.35;;;;;;;25.83;32.38;100572.13;4685447;30;20061;-81
2021/04/01 13:04:58;;;;;;;31.60;18.85;;;;;;;26.00;31.69;100561.38;4685203;30;20050;-75
2021/04/01 13:11:23;;;;;;;34.30;21.08;;;;;;;26.09;30.71;100549.84;4684962;30;20395;-75
2021/04/01 13:14:28;;;;;;;33.85;21.70;;;;;;;25.92;31.29;100557.03;4684699;30;20046;-82
2021/04/01 13:17:33;;;;;;;29.40;19.73;;;;;;;25.91;30.37;100537.97;4694105;30;20050;-82
2021/04/01 13:20:38;;;;;;;28.83;18.35;;;;;;;25.91;30.47;100538.81;4685071;30;20066;-76
2021/04/01 13:23:59;;;;;;;42.90;20.17;;;;;;;25.91;31.13;100519.56;4693311;30;20057;-76
2021/04/01 13:27:11;;;;;;;41.97;21.30;;;;;;;25.90;31.60;100519.81;4684594;30;20050;-75
2021/04/01 13:30:21;;;;;;;40.83;21.85;;;;;;;25.71;31.01;100510.72;4685367;30;20054;-74
2021/04/01 13:34:03;;;;;;;32.70;20.25;;;;;;;25.63;30.24;100503.59;4694419;30;20050;-82
2021/04/01 13:40:10;;;;;;;41.03;20.17;;;;;;;25.36;30.74;100495.84;4685138;30;20050;-75
2021/04/01 13:43:16;;;;;;;32.60;19.60;;;;;;;25.40;30.91;100499.81;4684548;30;20057;-78
2021/04/01 13:46:21;;;;;;;32.85;19.30;;;;;;;25.36;30.99;100493.94;4685186;30;20049;-80
2021/04/01 13:49:28;;;;;;;33.20;18.83;;;;;;;25.34;30.78;100484.22;4684844;30;20054;-75
2021/04/01 13:53:45;;;;;;;31.23;19.83;;;;;;;25.21;31.67;100486.06;4685003;30;20407;-75
2021/04/01 13:56:22;;;;;;;35.88;19.98;;;;;;;25.31;31.51;100487.47;4684398;30;20050;-75
2021/04/01 13:59:38;;;;;;;33.78;20.27;;;;;;;25.32;32.00;100473.47;4684717;30;20057;-75
2021/04/01 14:09:39;;;;;;;31.58;19.45;;;;;;;25.41;31.99;100460.25;4684694;30;20050;-75
2021/04/01 14:12:48;;;;;;;67.43;21.77;;;;;;;25.53;32.03;100464.81;4684695;30;20058;-75
2021/04/01 14:15:53;;;;;;;35.78;18.90;;;;;;;25.59;31.54;100463.06;4684513;30;20053;-78
2021/04/01 14:18:59;;;;;;;29.63;19.05;;;;;;;25.49;31.71;100457.25;4684654;30;20066;-75
2021/04/01 14:22:04;;;;;;;32.00;19.95;;;;;;;25.43;31.66;100458.16;4683715;30;20058;-79
2021/04/01 14:25:52;;;;;;;31.65;18.05;;;;;;;25.41;31.51;100450.13;4684251;30;20054;-81
2021/04/01 14:28:37;;;;;;;47.45;20.40;;;;;;;25.56;31.77;100455.25;4690068;30;20483;-76
2021/04/01 14:31:41;;;;;;;36.22;18.83;;;;;;;25.55;31.62;100454.44;4693687;30;20062;-79
2021/04/01 14:34:46;;;;;;;31.88;17.33;;;;;;;25.59;31.67;100449.31;4693350;30;20046;-82
2021/04/01 14:37:54;;;;;;;36.22;17.90;;;;;;;25.66;31.45;100439.06;4684197;30;20046;-80
2021/04/01 14:44:20;;;;;;;31.02;17.15;;;;;;;25.64;31.22;100427.47;4684151;30;20057;-76
2021/04/01 14:47:25;;;;;;;29.65;16.63;;;;;;;25.69;31.17;100427.59;4684051;30;20054;-76
2021/04/01 14:50:30;;;;;;;27.05;15.13;;;;;;;25.76;31.28;100422.84;4693067;30;20058;-76
2021/04/01 14:53:45;;;;;;;26.67;15.68;;;;;;;25.77;31.14;100419.06;4692805;30;20053;-76
2021/04/01 14:56:54;;;;;;;72.28;19.40;;;;;;;25.79;31.64;100414.16;4683970;30;20422;-75
2021/04/01 15:00:04;;;;;;;28.73;16.15;;;;;;;25.73;30.95;100406.81;4683861;30;20061;-75
2021/04/01 15:03:10;;;;;;;31.13;15.60;;;;;;;25.75;30.62;100411.00;4682766;30;20058;-74
2021/04/01 15:06:15;;;;;;;30.02;16.10;;;;;;;25.70;31.09;100399.88;4683955;30;20058;-75
2021/04/01 15:09:21;;;;;;;43.65;15.48;;;;;;;25.77;31.08;100406.16;4692858;30;20053;-75
2021/04/01 15:12:26;;;;;;;36.22;15.68;;;;;;;25.80;31.28;100399.34;4683741;30;20046;-75
2021/04/01 15:15:31;;;;;;;31.30;15.68;;;;;;;25.76;30.71;100406.34;4691303;30;20046;-74
2021/04/01 15:18:37;;;;;;;30.63;15.25;;;;;;;25.66;30.77;100397.81;4683352;30;20053;-74
2021/04/01 15:21:42;;;;;;;26.02;14.98;;;;;;;25.63;30.92;100401.88;4683642;30;20046;-78
2021/04/01 15:24:47;;;;;;;26.23;15.43;;;;;;;25.72;30.84;100396.91;4683390;30;20049;-76
2021/04/01 15:27:54;;;;;;;24.52;13.63;;;;;;;25.57;31.39;100393.72;4683641;30;20398;-75
2021/04/01 15:30:58;;;;;;;22.55;13.85;;;;;;;25.59;32.05;100386.06;4683155;30;20057;-76
2021/04/01 15:34:03;;;;;;;25.63;15.93;;;;;;;25.49;31.72;100391.28;4683619;30;20058;-79
2021/04/01 15:37:07;;;;;;;29.83;16.73;;;;;;;25.44;31.59;100382.84;4683591;30;20046;-77
2021/04/01 15:40:13;;;;;;;29.15;14.95;;;;;;;25.44;32.01;100382.84;4683281;30;20080;-81
2021/04/01 15:43:18;;;;;;;24.75;14.95;;;;;;;25.42;31.57;100387.75;4692569;30;20399;-75
2021/04/01 15:46:25;;;;;;;25.70;13.95;;;;;;;25.48;31.81;100389.63;4693357;30;20053;-75
2021/04/01 15:49:29;;;;;;;28.15;13.15;;;;;;;25.43;31.96;100378.44;4700526;30;20062;-78
2021/04/01 15:52:34;;;;;;;27.10;12.73;;;;;;;25.38;31.46;100379.09;4694180;30;20109;-78
2021/04/01 15:55:38;;;;;;;20.85;12.88;;;;;;;25.34;31.41;100388.88;4681992;30;20054;-77
2021/04/01 15:58:42;;;;;;;24.48;12.90;;;;;;;25.41;31.36;100377.81;4682321;30;20054;-78
2021/04/01 16:01:47;;;;;;;25.52;12.80;;;;;;;25.35;31.05;100378.75;4683019;30;20057;-78
2021/04/01 16:04:51;;;;;;;28.02;12.90;;;;;;;25.27;31.84;100382.63;4682933;30;20050;-78
2021/04/01 16:07:56;;;;;;;23.23;11.60;;;;;;;25.30;31.67;100379.44;4682760;30;20050;-76
2021/04/01 16:11:02;;;;;;;27.02;12.90;;;;;;;25.25;31.79;100378.44;4690007;30;20120;-78